createdAt,value
2022-08-08T00:00:55.783Z,15.10
2022-08-08T00:03:28.456Z,15.00
2022-08-08T00:06:09.131Z,15.00
2022-08-08T00:08:49.955Z,14.90
2022-08-08T00:11:47.033Z,14.90
2022-08-08T00:14:59.606Z,14.90
2022-08-08T00:17:58.368Z,14.90
2022-08-08T00:20:45.307Z,14.90
2022-08-08T00:23:28.491Z,14.90
2022-08-08T00:26:21.699Z,14.90
2022-08-08T00:29:07.667Z,14.90
2022-08-08T00:32:15.245Z,14.90
2022-08-08T00:35:20.267Z,14.90
2022-08-08T00:38:31.327Z,14.90
2022-08-08T00:42:08.975Z,14.80
2022-08-08T00:45:54.085Z,14.60
2022-08-08T00:49:21.941Z,14.60
2022-08-08T00:52:19.426Z,14.60
2022-08-08T00:55:52.433Z,14.60
2022-08-08T00:58:35.501Z,14.70
2022-08-08T01:01:29.327Z,14.60
2022-08-08T01:05:42.201Z,14.50
2022-08-08T01:09:35.970Z,14.40
2022-08-08T01:13:43.712Z,14.30
2022-08-08T01:16:50.414Z,14.30
2022-08-08T01:20:21.920Z,14.30
2022-08-08T01:24:03.266Z,14.40
2022-08-08T01:27:10.616Z,14.40
2022-08-08T01:30:25.549Z,14.40
2022-08-08T01:33:54.013Z,14.50
2022-08-08T01:37:51.132Z,14.40
2022-08-08T01:40:28.129Z,14.40
2022-08-08T01:43:07.943Z,14.40
2022-08-08T01:46:03.737Z,14.30
2022-08-08T01:48:56.545Z,14.40
2022-08-08T01:52:42.795Z,14.40
2022-08-08T01:55:44.876Z,14.40
2022-08-08T01:58:32.075Z,14.30
2022-08-08T02:01:22.003Z,14.20
2022-08-08T02:04:13.528Z,14.30
2022-08-08T02:07:01.246Z,14.30
2022-08-08T02:10:03.944Z,14.30
2022-08-08T02:12:54.382Z,14.30
2022-08-08T02:15:38.535Z,14.20
2022-08-08T02:18:16.820Z,14.20
2022-08-08T02:21:18.305Z,14.20
2022-08-08T02:24:00.824Z,14.10
2022-08-08T02:26:47.361Z,14.10
2022-08-08T02:29:54.824Z,14.20
2022-08-08T02:32:53.558Z,14.20
2022-08-08T02:36:03.767Z,14.20
2022-08-08T02:38:50.785Z,14.20
2022-08-08T02:42:03.927Z,14.10
2022-08-08T02:45:28.715Z,14.20
2022-08-08T02:48:36.982Z,14.10
2022-08-08T02:52:11.506Z,14.10
2022-08-08T02:56:01.508Z,14.10
2022-08-08T03:00:01.590Z,13.90
2022-08-08T03:05:01.335Z,13.80
2022-08-08T03:07:41.566Z,13.80
2022-08-08T03:11:48.015Z,13.70
2022-08-08T03:15:59.841Z,13.70
2022-08-08T03:18:04.824Z,13.70
2022-08-08T03:20:51.412Z,13.70
2022-08-08T03:23:30.398Z,13.70
2022-08-08T03:26:09.080Z,13.70
2022-08-08T03:28:51.079Z,13.60
2022-08-08T03:32:06.475Z,13.60
2022-08-08T03:34:29.994Z,13.70
2022-08-08T03:36:58.381Z,13.70
2022-08-08T03:39:28.331Z,13.70
2022-08-08T03:42:26.774Z,13.70
2022-08-08T03:44:52.318Z,13.70
2022-08-08T03:47:23.975Z,13.70
2022-08-08T03:50:00.715Z,13.60
2022-08-08T03:52:35.806Z,13.60
2022-08-08T03:55:20.121Z,13.60
2022-08-08T03:58:33.577Z,13.60
2022-08-08T04:01:24.237Z,13.70
2022-08-08T04:03:58.675Z,13.70
2022-08-08T04:06:33.061Z,13.70
2022-08-08T04:09:11.230Z,13.70
2022-08-08T04:11:48.570Z,13.70
2022-08-08T04:14:45.296Z,13.80
2022-08-08T04:17:22.473Z,13.80
2022-08-08T04:20:04.651Z,13.90
2022-08-08T04:22:34.490Z,14.00
2022-08-08T04:25:05.542Z,14.10
2022-08-08T04:28:01.770Z,14.00
2022-08-08T04:30:24.205Z,14.00
2022-08-08T04:32:54.728Z,14.00
2022-08-08T04:35:29.418Z,14.10
2022-08-08T04:38:01.191Z,14.20
2022-08-08T04:40:34.621Z,14.20
2022-08-08T04:43:05.591Z,14.30
2022-08-08T04:45:41.843Z,14.30
2022-08-08T04:48:11.448Z,14.30
2022-08-08T04:50:46.127Z,14.40
2022-08-08T04:54:27.629Z,14.50
2022-08-08T04:56:08.147Z,14.70
2022-08-08T04:58:38.537Z,15.00
2022-08-08T05:01:11.021Z,15.20
2022-08-08T05:04:11.281Z,15.20
2022-08-08T05:06:42.292Z,15.40
2022-08-08T05:09:11.314Z,15.50
2022-08-08T05:11:42.666Z,15.70
2022-08-08T05:14:20.475Z,15.80
2022-08-08T05:17:01.415Z,15.90
2022-08-08T05:20:12.961Z,16.00
2022-08-08T05:22:29.525Z,16.00
2022-08-08T05:24:59.577Z,16.10
2022-08-08T05:27:28.036Z,16.20
2022-08-08T05:30:04.021Z,16.30
2022-08-08T05:32:46.827Z,16.40
2022-08-08T05:35:23.546Z,16.60
2022-08-08T05:38:02.134Z,16.70
2022-08-08T05:40:48.970Z,16.70
2022-08-08T05:43:40.021Z,16.70
2022-08-08T05:46:17.671Z,16.70
2022-08-08T05:48:52.345Z,16.70
2022-08-08T05:51:24.274Z,16.80
2022-08-08T05:54:26.753Z,16.70
2022-08-08T05:56:48.483Z,16.80
2022-08-08T05:59:59.085Z,16.90
2022-08-08T06:02:54.953Z,17.00
2022-08-08T06:05:35.004Z,17.10
2022-08-08T06:08:09.553Z,17.40
2022-08-08T06:10:43.098Z,17.70
2022-08-08T06:13:12.894Z,17.90
2022-08-08T06:15:51.035Z,18.00
2022-08-08T06:18:30.067Z,18.10
2022-08-08T06:21:11.263Z,18.20
2022-08-08T06:23:53.098Z,18.30
2022-08-08T06:26:44.504Z,18.30
2022-08-08T06:29:56.456Z,18.30
2022-08-08T06:32:31.720Z,18.30
2022-08-08T06:36:00.667Z,18.40
2022-08-08T06:38:14.161Z,18.50
2022-08-08T06:40:48.537Z,18.60
2022-08-08T06:43:34.138Z,18.60
2022-08-08T06:46:14.011Z,18.50
2022-08-08T06:48:46.936Z,18.50
2022-08-08T06:51:18.395Z,18.60
2022-08-08T06:53:50.763Z,18.60
2022-08-08T06:56:33.047Z,18.60
2022-08-08T06:59:12.048Z,18.70
2022-08-08T07:02:27.102Z,18.80
2022-08-08T07:04:52.628Z,18.80
2022-08-08T07:07:42.085Z,18.80
2022-08-08T07:10:12.779Z,18.80
2022-08-08T07:12:48.270Z,18.70
2022-08-08T07:16:05.238Z,18.70
2022-08-08T07:18:49.296Z,18.70
2022-08-08T07:21:24.649Z,18.70
2022-08-08T07:24:09.514Z,18.70
2022-08-08T07:26:56.150Z,18.90
2022-08-08T07:30:01.600Z,18.90
2022-08-08T07:32:17.137Z,19.00
2022-08-08T07:35:00.413Z,19.10
2022-08-08T07:38:04.475Z,19.30
2022-08-08T07:40:32.674Z,19.40
2022-08-08T07:43:09.465Z,19.40
2022-08-08T07:46:05.666Z,19.40
2022-08-08T07:48:32.531Z,19.40
2022-08-08T07:51:02.623Z,19.50
2022-08-08T07:54:01.919Z,19.50
2022-08-08T07:56:59.829Z,19.50
2022-08-08T07:59:37.628Z,19.70
2022-08-08T08:02:34.377Z,19.70
2022-08-08T08:05:03.599Z,19.70
2022-08-08T08:07:38.776Z,19.70
2022-08-08T08:10:13.749Z,19.80
2022-08-08T08:12:59.139Z,19.90
2022-08-08T08:15:32.333Z,19.90
2022-08-08T08:18:06.589Z,20.00
2022-08-08T08:20:45.183Z,19.90
2022-08-08T08:23:14.307Z,19.90
2022-08-08T08:25:55.163Z,20.30
2022-08-08T08:28:26.853Z,20.40
2022-08-08T08:31:04.819Z,20.50
2022-08-08T08:33:35.939Z,20.50
2022-08-08T08:36:20.630Z,20.50
2022-08-08T08:38:51.845Z,20.60
2022-08-08T08:41:31.562Z,20.80
2022-08-08T08:44:13.423Z,20.80
2022-08-08T08:46:45.591Z,21.00
2022-08-08T08:49:19.362Z,21.20
2022-08-08T08:51:52.085Z,21.40
2022-08-08T08:54:26.163Z,21.70
2022-08-08T08:57:03.641Z,21.80
2022-08-08T08:59:59.972Z,21.90
2022-08-08T09:02:41.666Z,22.10
2022-08-08T09:05:48.884Z,22.00
2022-08-08T09:08:12.784Z,22.00
2022-08-08T09:10:48.463Z,21.70
2022-08-08T09:13:23.116Z,21.50
2022-08-08T09:16:03.492Z,21.40
2022-08-08T09:18:35.221Z,21.30
2022-08-08T09:21:57.614Z,21.30
2022-08-08T09:23:55.919Z,21.40
2022-08-08T09:26:47.146Z,21.30
2022-08-08T09:29:24.570Z,21.40
2022-08-08T09:32:06.327Z,21.20
2022-08-08T09:34:51.863Z,21.20
2022-08-08T09:37:58.828Z,21.10
2022-08-08T09:40:43.912Z,21.10
2022-08-08T09:44:04.996Z,21.00
2022-08-08T09:46:25.544Z,21.10
2022-08-08T09:49:18.143Z,21.00
2022-08-08T09:52:07.127Z,21.00
2022-08-08T09:54:44.928Z,21.10
2022-08-08T09:57:25.318Z,21.10
2022-08-08T10:02:48.937Z,21.30
2022-08-08T10:05:25.028Z,21.10
2022-08-08T10:08:00.272Z,21.20
2022-08-08T10:10:33.530Z,21.30
2022-08-08T10:13:18.975Z,21.30
2022-08-08T10:15:59.281Z,21.50
2022-08-08T10:18:33.430Z,21.60
2022-08-08T10:21:22.585Z,21.60
2022-08-08T10:23:56.335Z,21.50
2022-08-08T10:26:57.146Z,21.50
2022-08-08T10:29:43.834Z,21.60
2022-08-08T10:32:35.852Z,21.60
2022-08-08T10:36:01.871Z,21.60
2022-08-08T10:38:05.332Z,21.60
2022-08-08T10:40:34.590Z,21.60
2022-08-08T10:43:06.164Z,21.70
2022-08-08T10:45:55.719Z,21.80
2022-08-08T10:48:38.815Z,22.00
2022-08-08T10:51:24.119Z,22.20
2022-08-08T10:53:57.391Z,22.20
2022-08-08T10:56:34.465Z,22.20
2022-08-08T10:59:06.222Z,22.20
2022-08-08T11:01:35.061Z,22.20
2022-08-08T11:04:07.949Z,22.30
2022-08-08T11:06:41.871Z,22.40
2022-08-08T11:09:21.270Z,22.30
2022-08-08T11:12:06.466Z,22.40
2022-08-08T11:14:53.931Z,22.40
2022-08-08T11:18:00.508Z,22.40
2022-08-08T11:20:22.554Z,22.30
2022-08-08T11:22:59.129Z,22.30
2022-08-08T11:25:56.874Z,22.40
2022-08-08T11:28:30.672Z,22.40
2022-08-08T11:31:03.682Z,22.40
2022-08-08T11:33:51.851Z,22.40
2022-08-08T11:36:23.465Z,22.40
2022-08-08T11:38:58.543Z,22.40
2022-08-08T11:41:32.579Z,22.40
2022-08-08T11:44:03.540Z,22.40
2022-08-08T11:46:35.138Z,22.50
2022-08-08T11:49:11.505Z,22.60
2022-08-08T11:51:50.232Z,22.60
2022-08-08T11:54:33.697Z,22.70
2022-08-08T11:57:23.697Z,22.60
2022-08-08T12:00:06.012Z,22.70
2022-08-08T12:02:51.081Z,22.80
2022-08-08T12:05:22.808Z,22.90
2022-08-08T12:07:56.127Z,22.90
2022-08-08T12:10:27.875Z,23.10
2022-08-08T12:13:06.285Z,23.20
2022-08-08T12:15:42.832Z,23.30
2022-08-08T12:18:21.358Z,23.40
2022-08-08T12:20:56.629Z,23.30
2022-08-08T12:23:43.662Z,23.30
2022-08-08T12:26:27.793Z,23.50
2022-08-08T12:29:21.699Z,23.80
2022-08-08T12:32:09.627Z,23.80
2022-08-08T12:34:43.964Z,23.60
2022-08-08T12:37:20.691Z,23.60
2022-08-08T12:40:00.977Z,23.60
2022-08-08T12:42:32.806Z,23.60
2022-08-08T12:45:58.204Z,23.60
2022-08-08T12:48:09.890Z,23.80
2022-08-08T12:50:49.373Z,23.80
2022-08-08T12:53:24.705Z,23.90
2022-08-08T12:56:17.831Z,23.90
2022-08-08T12:58:51.353Z,23.90
2022-08-08T13:01:24.704Z,23.70
2022-08-08T13:04:18.723Z,23.70
2022-08-08T13:07:00.858Z,23.70
2022-08-08T13:09:51.376Z,23.60
2022-08-08T13:12:30.584Z,23.50
2022-08-08T13:15:03.135Z,23.30
2022-08-08T13:17:54.228Z,23.30
2022-08-08T13:20:24.043Z,23.10
2022-08-08T13:23:35.942Z,23.10
2022-08-08T13:25:58.815Z,23.00
2022-08-08T13:28:32.880Z,23.00
2022-08-08T13:31:03.994Z,23.10
2022-08-08T13:33:42.538Z,23.10
2022-08-08T13:36:12.067Z,23.20
2022-08-08T13:38:40.908Z,23.20
2022-08-08T13:41:16.412Z,23.10
2022-08-08T13:43:47.396Z,23.00
2022-08-08T13:46:28.841Z,22.70
2022-08-08T13:50:33.245Z,22.60
2022-08-08T13:51:58.246Z,22.60
2022-08-08T13:54:31.154Z,22.60
2022-08-08T13:57:03.168Z,22.50
2022-08-08T13:59:33.523Z,22.40
2022-08-08T14:02:07.781Z,22.30
2022-08-08T14:04:54.238Z,22.20
2022-08-08T14:07:24.631Z,22.20
2022-08-08T14:10:04.791Z,22.30
2022-08-08T14:12:40.657Z,22.30
2022-08-08T14:15:31.566Z,22.30
2022-08-08T14:18:35.789Z,22.40
2022-08-08T14:21:12.629Z,22.40
2022-08-08T14:24:03.988Z,22.40
2022-08-08T14:26:33.596Z,22.40
2022-08-08T14:29:06.078Z,22.40
2022-08-08T14:32:09.551Z,22.50
2022-08-08T14:34:37.390Z,22.50
2022-08-08T14:37:08.730Z,22.40
2022-08-08T14:39:48.447Z,22.40
2022-08-08T14:42:17.632Z,22.40
2022-08-08T14:45:00.322Z,22.40
2022-08-08T14:47:36.177Z,22.50
2022-08-08T14:50:14.207Z,22.40
2022-08-08T14:52:57.172Z,22.40
2022-08-08T14:55:35.385Z,22.50
2022-08-08T14:58:16.986Z,22.40
2022-08-08T15:00:49.825Z,22.50
2022-08-08T15:03:18.436Z,22.50
2022-08-08T15:05:53.337Z,22.50
2022-08-08T15:08:34.348Z,22.50
2022-08-08T15:11:11.192Z,22.50
2022-08-08T15:14:00.865Z,22.60
2022-08-08T15:16:29.631Z,22.50
2022-08-08T15:19:03.492Z,22.50
2022-08-08T15:21:31.606Z,22.60
2022-08-08T15:24:01.223Z,22.60
2022-08-08T15:26:32.629Z,22.60
2022-08-08T15:29:01.276Z,22.60
2022-08-08T15:32:03.115Z,22.50
2022-08-08T15:34:30.123Z,22.70
2022-08-08T15:37:02.289Z,22.60
2022-08-08T15:39:38.259Z,22.70
2022-08-08T15:42:10.631Z,22.70
2022-08-08T15:44:42.493Z,22.60
2022-08-08T15:47:16.169Z,22.60
2022-08-08T15:49:48.559Z,22.60
2022-08-08T15:52:27.872Z,22.70
2022-08-08T15:54:57.389Z,22.80
2022-08-08T15:57:26.175Z,22.80
2022-08-08T16:00:06.392Z,22.90
2022-08-08T16:02:50.407Z,23.00
2022-08-08T16:05:21.187Z,23.10
2022-08-08T16:07:53.003Z,23.20
2022-08-08T16:13:05.870Z,23.40
2022-08-08T16:13:33.543Z,23.60
2022-08-08T16:16:16.540Z,23.80
2022-08-08T16:18:56.431Z,24.00
2022-08-08T16:21:27.892Z,24.00
2022-08-08T16:23:58.060Z,23.80
2022-08-08T16:26:33.728Z,23.80
2022-08-08T16:29:09.082Z,23.80
2022-08-08T16:31:42.105Z,23.70
2022-08-08T16:34:18.401Z,23.60
2022-08-08T16:36:49.458Z,23.50
2022-08-08T16:39:28.408Z,23.30
2022-08-08T16:42:28.167Z,23.30
2022-08-08T16:44:58.854Z,23.30
2022-08-08T16:47:40.307Z,23.30
2022-08-08T16:50:14.175Z,23.20
2022-08-08T16:55:20.749Z,23.10
2022-08-08T16:55:52.469Z,22.90
2022-08-08T16:58:25.820Z,22.80
2022-08-08T17:00:58.152Z,22.60
2022-08-08T17:04:00.045Z,22.60
2022-08-08T17:06:17.667Z,22.60
2022-08-08T17:09:04.173Z,22.50
2022-08-08T17:11:48.142Z,22.30
2022-08-08T17:14:27.613Z,22.20
2022-08-08T17:17:03.227Z,22.10
2022-08-08T17:19:40.832Z,21.90
2022-08-08T17:22:10.205Z,21.80
2022-08-08T17:24:38.907Z,21.70
2022-08-08T17:27:07.669Z,21.60
2022-08-08T17:29:43.919Z,21.60
2022-08-08T17:32:29.096Z,21.60
2022-08-08T17:35:54.396Z,21.60
2022-08-08T17:37:51.920Z,21.50
2022-08-08T17:40:21.562Z,21.40
2022-08-08T17:42:50.412Z,21.40
2022-08-08T17:45:22.878Z,21.30
2022-08-08T17:47:54.214Z,21.30
2022-08-08T17:50:23.568Z,21.20
2022-08-08T17:52:51.999Z,21.20
2022-08-08T17:56:05.012Z,21.20
2022-08-08T17:58:09.102Z,21.20
2022-08-08T18:00:39.114Z,21.30
2022-08-08T18:03:13.659Z,21.20
2022-08-08T18:05:48.588Z,21.20
2022-08-08T18:08:25.088Z,21.20
2022-08-08T18:11:11.829Z,21.10
2022-08-08T18:13:43.191Z,21.10
2022-08-08T18:16:17.155Z,21.10
2022-08-08T18:18:54.079Z,21.10
2022-08-08T18:22:00.430Z,21.00
2022-08-08T18:24:18.821Z,21.00
2022-08-08T18:26:53.780Z,21.00
2022-08-08T18:29:27.343Z,20.90
2022-08-08T18:32:00.249Z,20.90
2022-08-08T18:34:32.763Z,20.80
2022-08-08T18:37:04.623Z,20.80
2022-08-08T18:39:34.682Z,20.80
2022-08-08T18:42:13.882Z,20.80
2022-08-08T18:44:52.777Z,20.80
2022-08-08T18:47:26.667Z,20.80
2022-08-08T18:49:58.329Z,20.80
2022-08-08T18:52:30.783Z,20.70
2022-08-08T18:55:09.189Z,20.60
2022-08-08T18:57:44.964Z,20.50
2022-08-08T19:00:20.458Z,20.40
2022-08-08T19:02:56.827Z,20.40
2022-08-08T19:05:34.584Z,20.30
2022-08-08T19:08:25.497Z,20.30
2022-08-08T19:10:58.541Z,20.20
2022-08-08T19:13:52.570Z,20.00
2022-08-08T19:16:19.080Z,19.90
2022-08-08T19:19:00.540Z,19.80
2022-08-08T19:21:33.253Z,19.70
2022-08-08T19:24:05.573Z,19.70
2022-08-08T19:26:34.932Z,19.60
2022-08-08T19:29:03.333Z,19.60
2022-08-08T19:31:35.432Z,19.60
2022-08-08T19:34:36.694Z,19.50
2022-08-08T19:36:58.650Z,19.50
2022-08-08T19:39:34.996Z,19.50
2022-08-08T19:42:05.063Z,19.40
2022-08-08T19:44:46.420Z,19.40
2022-08-08T19:47:24.503Z,19.30
2022-08-08T19:50:00.221Z,19.20
2022-08-08T19:52:35.462Z,19.10
2022-08-08T19:55:08.761Z,19.00
2022-08-08T19:57:37.857Z,19.00
2022-08-08T20:00:11.359Z,18.90
2022-08-08T20:02:57.669Z,18.90
2022-08-08T20:06:14.255Z,18.80
2022-08-08T20:08:28.949Z,18.80
2022-08-08T20:11:04.088Z,18.80
2022-08-08T20:14:13.036Z,18.80
2022-08-08T20:16:21.809Z,18.70
2022-08-08T20:18:57.832Z,18.70
2022-08-08T20:21:27.541Z,18.70
2022-08-08T20:24:00.258Z,18.60
2022-08-08T20:26:30.188Z,18.60
2022-08-08T20:29:02.568Z,18.50
2022-08-08T20:32:02.658Z,18.50
2022-08-08T20:34:29.074Z,18.50
2022-08-08T20:37:00.782Z,18.50
2022-08-08T20:39:39.338Z,18.40
2022-08-08T20:42:20.429Z,18.40
2022-08-08T20:44:56.398Z,18.40
2022-08-08T20:47:25.959Z,18.40
2022-08-08T20:49:57.658Z,18.30
2022-08-08T20:52:29.299Z,18.30
2022-08-08T20:54:58.041Z,18.30
2022-08-08T20:57:27.132Z,18.30
2022-08-08T20:59:57.418Z,18.20
2022-08-08T21:02:27.528Z,18.20
2022-08-08T21:05:00.923Z,18.20
2022-08-08T21:08:33.286Z,18.20
2022-08-08T21:10:21.467Z,18.20
2022-08-08T21:12:56.250Z,18.20
2022-08-08T21:16:05.910Z,18.10
2022-08-08T21:18:12.305Z,18.10
2022-08-08T21:20:42.456Z,18.10
2022-08-08T21:23:13.077Z,18.00
2022-08-08T21:25:49.027Z,18.10
2022-08-08T21:28:33.322Z,18.00
2022-08-08T21:31:22.049Z,18.00
2022-08-08T21:33:51.533Z,17.90
2022-08-08T21:36:21.185Z,18.00
2022-08-08T21:38:58.741Z,18.00
2022-08-08T21:41:38.104Z,17.90
2022-08-08T21:44:11.759Z,17.90
2022-08-08T21:48:02.551Z,17.90
2022-08-08T21:49:30.500Z,17.90
2022-08-08T21:54:18.038Z,17.80
2022-08-08T21:55:01.465Z,17.70
2022-08-08T21:57:42.920Z,17.80
2022-08-08T22:00:26.073Z,17.70
2022-08-08T22:02:54.459Z,17.60
2022-08-08T22:05:23.219Z,17.60
2022-08-08T22:07:51.578Z,17.60
2022-08-08T22:10:32.020Z,17.60
2022-08-08T22:13:16.993Z,17.60
2022-08-08T22:15:58.807Z,17.50
2022-08-08T22:18:30.808Z,17.40
2022-08-08T22:21:08.316Z,17.40
2022-08-08T22:23:50.833Z,17.30
2022-08-08T22:26:29.877Z,17.30
2022-08-08T22:29:13.892Z,17.30
2022-08-08T22:31:58.720Z,17.20
2022-08-08T22:34:32.846Z,17.10
2022-08-08T22:37:01.325Z,17.10
2022-08-08T22:39:45.873Z,17.00
2022-08-08T22:42:27.455Z,16.90
2022-08-08T22:45:00.881Z,16.90
2022-08-08T22:47:34.349Z,16.80
2022-08-08T22:50:25.708Z,16.70
2022-08-08T22:54:19.468Z,16.70
2022-08-08T22:55:58.517Z,16.60
2022-08-08T22:58:32.875Z,16.50
2022-08-08T23:01:26.449Z,16.50
2022-08-08T23:03:53.527Z,16.60
2022-08-08T23:06:23.448Z,16.50
2022-08-08T23:08:54.322Z,16.60
2022-08-08T23:11:31.010Z,16.50
2022-08-08T23:14:14.315Z,16.50
2022-08-08T23:16:47.226Z,16.50
2022-08-08T23:19:17.693Z,16.50
2022-08-08T23:21:46.988Z,16.40
2022-08-08T23:24:22.266Z,16.40
2022-08-08T23:26:52.962Z,16.40
2022-08-08T23:29:22.966Z,16.40
2022-08-08T23:31:51.334Z,16.40
2022-08-08T23:34:19.995Z,16.30
2022-08-08T23:36:48.657Z,16.30
2022-08-08T23:39:16.889Z,16.20
2022-08-08T23:41:46.238Z,16.10
2022-08-08T23:44:18.546Z,16.10
2022-08-08T23:48:59.925Z,16.00
2022-08-08T23:49:37.782Z,15.90
2022-08-08T23:52:09.418Z,15.90
2022-08-08T23:54:53.171Z,15.90
2022-08-08T23:57:39.143Z,15.90
